sensor_id;sensor_type;location;lat;lon;timestamp;pressure;altitude;pressure_sealevel;temperature;humidity
74524;BME280;63074;44.696;10.358;2023-08-30T00:01:06;99105.69;;;30.22;90.55
74524;BME280;63074;44.696;10.358;2023-08-30T00:03:34;99135.16;;;29.35;96.97
74524;BME280;63074;44.696;10.358;2023-08-30T00:06:06;99111.00;;;30.70;91.03
74524;BME280;63074;44.696;10.358;2023-08-30T00:08:33;99089.25;;;30.93;86.67
74524;BME280;63074;44.696;10.358;2023-08-30T00:11:00;99067.47;;;30.81;83.63
74524;BME280;63074;44.696;10.358;2023-08-30T00:13:30;99065.13;;;31.29;83.21
74524;BME280;63074;44.696;10.358;2023-08-30T00:15:57;99049.41;;;32.28;77.06
74524;BME280;63074;44.696;10.358;2023-08-30T00:18:23;99061.16;;;31.23;80.42
74524;BME280;63074;44.696;10.358;2023-08-30T00:20:49;99047.66;;;31.43;76.87
74524;BME280;63074;44.696;10.358;2023-08-30T00:23:16;99059.56;;;31.08;79.05
74524;BME280;63074;44.696;10.358;2023-08-30T00:25:42;99063.13;;;31.22;78.99
74524;BME280;63074;44.696;10.358;2023-08-30T00:28:09;99080.94;;;31.00;80.12
74524;BME280;63074;44.696;10.358;2023-08-30T00:30:35;99084.50;;;30.86;81.65
74524;BME280;63074;44.696;10.358;2023-08-30T00:33:01;99101.88;;;30.66;83.78
74524;BME280;63074;44.696;10.358;2023-08-30T00:35:28;99088.06;;;30.83;81.22
74524;BME280;63074;44.696;10.358;2023-08-30T00:37:54;99106.25;;;30.63;83.55
74524;BME280;63074;44.696;10.358;2023-08-30T00:40:24;99283.06;;;26.05;100.00
74524;BME280;63074;44.696;10.358;2023-08-30T00:42:50;99264.38;;;27.23;100.00
74524;BME280;63074;44.696;10.358;2023-08-30T00:45:16;99178.44;;;28.79;100.00
74524;BME280;63074;44.696;10.358;2023-08-30T00:47:43;99189.16;;;28.51;100.00
74524;BME280;63074;44.696;10.358;2023-08-30T00:50:10;99167.19;;;28.28;100.00
74524;BME280;63074;44.696;10.358;2023-08-30T00:52:36;99192.88;;;28.66;100.00
74524;BME280;63074;44.696;10.358;2023-08-30T00:55:02;99190.31;;;28.20;100.00
74524;BME280;63074;44.696;10.358;2023-08-30T00:57:29;99174.47;;;28.17;100.00
74524;BME280;63074;44.696;10.358;2023-08-30T00:59:56;99193.19;;;28.01;100.00
74524;BME280;63074;44.696;10.358;2023-08-30T01:02:22;99118.72;;;30.18;90.90
74524;BME280;63074;44.696;10.358;2023-08-30T01:04:50;99153.22;;;27.65;100.00
74524;BME280;63074;44.696;10.358;2023-08-30T01:07:16;99150.22;;;28.30;100.00
74524;BME280;63074;44.696;10.358;2023-08-30T01:09:42;99128.16;;;29.04;97.17
74524;BME280;63074;44.696;10.358;2023-08-30T01:12:17;99125.13;;;29.19;94.33
74524;BME280;63074;44.696;10.358;2023-08-30T01:14:56;99113.38;;;28.89;93.37
74524;BME280;63074;44.696;10.358;2023-08-30T01:17:24;99132.31;;;29.28;94.93
74524;BME280;63074;44.696;10.358;2023-08-30T01:20:03;99135.25;;;28.68;97.36
74524;BME280;63074;44.696;10.358;2023-08-30T01:22:45;99195.44;;;27.00;100.00
74524;BME280;63074;44.696;10.358;2023-08-30T01:28:01;99129.88;;;29.63;96.77
74524;BME280;63074;44.696;10.358;2023-08-30T01:30:30;99159.63;;;28.25;100.00
74524;BME280;63074;44.696;10.358;2023-08-30T01:32:58;99190.50;;;28.34;100.00
74524;BME280;63074;44.696;10.358;2023-08-30T01:35:25;99189.66;;;28.30;100.00
74524;BME280;63074;44.696;10.358;2023-08-30T01:37:57;99176.28;;;28.96;100.00
74524;BME280;63074;44.696;10.358;2023-08-30T01:40:23;99155.38;;;28.98;100.00
74524;BME280;63074;44.696;10.358;2023-08-30T01:42:50;99122.06;;;29.83;98.03
74524;BME280;63074;44.696;10.358;2023-08-30T01:45:18;99129.72;;;29.42;98.55
74524;BME280;63074;44.696;10.358;2023-08-30T01:47:46;99140.09;;;29.55;100.00
74524;BME280;63074;44.696;10.358;2023-08-30T01:50:14;99107.66;;;30.18;92.88
74524;BME280;63074;44.696;10.358;2023-08-30T01:52:41;99090.47;;;31.24;88.45
74524;BME280;63074;44.696;10.358;2023-08-30T01:55:09;99115.38;;;29.87;91.91
74524;BME280;63074;44.696;10.358;2023-08-30T01:57:36;99086.91;;;31.09;87.24
74524;BME280;63074;44.696;10.358;2023-08-30T02:00:02;99086.13;;;31.09;85.53
74524;BME280;63074;44.696;10.358;2023-08-30T02:02:29;99093.63;;;31.05;88.23
74524;BME280;63074;44.696;10.358;2023-08-30T02:04:56;99076.19;;;30.83;85.75
74524;BME280;63074;44.696;10.358;2023-08-30T02:08:05;99135.47;;;29.26;97.60
74524;BME280;63074;44.696;10.358;2023-08-30T02:10:33;99118.78;;;29.63;95.83
74524;BME280;63074;44.696;10.358;2023-08-30T02:13:01;99169.94;;;28.62;100.00
74524;BME280;63074;44.696;10.358;2023-08-30T02:15:30;99134.94;;;29.54;99.98
74524;BME280;63074;44.696;10.358;2023-08-30T02:17:57;99152.06;;;28.52;100.00
74524;BME280;63074;44.696;10.358;2023-08-30T02:20:25;99122.53;;;29.37;99.65
74524;BME280;63074;44.696;10.358;2023-08-30T02:22:51;99088.31;;;30.39;91.59
74524;BME280;63074;44.696;10.358;2023-08-30T02:25:17;99100.56;;;29.59;95.64
74524;BME280;63074;44.696;10.358;2023-08-30T02:27:44;99093.78;;;30.14;93.83
74524;BME280;63074;44.696;10.358;2023-08-30T02:30:10;99080.06;;;30.50;88.92
74524;BME280;63074;44.696;10.358;2023-08-30T02:32:36;99067.09;;;31.07;86.86
74524;BME280;63074;44.696;10.358;2023-08-30T02:35:03;99094.59;;;30.18;92.14
74524;BME280;63074;44.696;10.358;2023-08-30T02:37:29;99108.56;;;29.74;95.41
74524;BME280;63074;44.696;10.358;2023-08-30T02:39:56;99114.31;;;29.48;96.84
74524;BME280;63074;44.696;10.358;2023-08-30T02:42:22;99133.56;;;29.34;100.00
74524;BME280;63074;44.696;10.358;2023-08-30T02:44:48;99137.88;;;28.87;100.00
74524;BME280;63074;44.696;10.358;2023-08-30T02:47:14;99160.69;;;28.47;100.00
74524;BME280;63074;44.696;10.358;2023-08-30T02:49:40;99133.28;;;29.02;100.00
74524;BME280;63074;44.696;10.358;2023-08-30T02:52:07;99111.75;;;29.76;99.29
74524;BME280;63074;44.696;10.358;2023-08-30T02:54:33;99119.97;;;29.18;100.00
74524;BME280;63074;44.696;10.358;2023-08-30T02:56:59;99136.69;;;28.84;100.00
74524;BME280;63074;44.696;10.358;2023-08-30T02:59:25;99112.53;;;29.26;100.00
74524;BME280;63074;44.696;10.358;2023-08-30T03:01:52;99113.38;;;28.85;100.00
74524;BME280;63074;44.696;10.358;2023-08-30T03:04:18;99144.63;;;28.56;100.00
74524;BME280;63074;44.696;10.358;2023-08-30T03:06:44;99155.16;;;28.17;100.00
74524;BME280;63074;44.696;10.358;2023-08-30T03:09:10;99145.66;;;28.14;100.00
74524;BME280;63074;44.696;10.358;2023-08-30T03:11:37;99133.91;;;28.51;100.00
74524;BME280;63074;44.696;10.358;2023-08-30T03:14:04;99102.47;;;29.03;100.00
74524;BME280;63074;44.696;10.358;2023-08-30T03:16:30;99092.28;;;29.11;100.00
74524;BME280;63074;44.696;10.358;2023-08-30T03:18:57;99119.28;;;28.50;100.00
74524;BME280;63074;44.696;10.358;2023-08-30T03:21:23;99082.03;;;29.66;100.00
74524;BME280;63074;44.696;10.358;2023-08-30T03:23:49;99062.56;;;30.35;96.01
74524;BME280;63074;44.696;10.358;2023-08-30T03:26:17;99133.66;;;28.30;100.00
74524;BME280;63074;44.696;10.358;2023-08-30T03:28:44;99128.75;;;28.49;100.00
74524;BME280;63074;44.696;10.358;2023-08-30T03:31:13;99090.72;;;29.65;100.00
74524;BME280;63074;44.696;10.358;2023-08-30T03:33:40;99155.78;;;28.33;100.00
74524;BME280;63074;44.696;10.358;2023-08-30T03:36:14;99095.00;;;29.55;100.00
74524;BME280;63074;44.696;10.358;2023-08-30T03:38:41;99100.81;;;29.39;100.00
74524;BME280;63074;44.696;10.358;2023-08-30T03:41:08;99133.13;;;28.20;100.00
74524;BME280;63074;44.696;10.358;2023-08-30T03:43:34;99112.25;;;28.56;100.00
74524;BME280;63074;44.696;10.358;2023-08-30T03:46:01;99120.31;;;28.39;100.00
74524;BME280;63074;44.696;10.358;2023-08-30T03:48:29;99122.91;;;27.95;100.00
74524;BME280;63074;44.696;10.358;2023-08-30T03:50:56;99120.63;;;28.04;100.00
74524;BME280;63074;44.696;10.358;2023-08-30T03:53:24;99100.72;;;28.17;100.00
74524;BME280;63074;44.696;10.358;2023-08-30T03:55:50;99082.94;;;28.82;100.00
74524;BME280;63074;44.696;10.358;2023-08-30T03:58:17;99096.00;;;28.51;100.00
74524;BME280;63074;44.696;10.358;2023-08-30T04:00:44;99059.69;;;29.38;100.00
74524;BME280;63074;44.696;10.358;2023-08-30T04:03:12;99048.09;;;29.21;100.00
74524;BME280;63074;44.696;10.358;2023-08-30T04:05:39;99040.06;;;29.61;100.00
74524;BME280;63074;44.696;10.358;2023-08-30T04:08:06;99053.59;;;29.14;100.00
74524;BME280;63074;44.696;10.358;2023-08-30T04:10:40;99078.56;;;28.81;100.00
74524;BME280;63074;44.696;10.358;2023-08-30T04:13:06;99087.56;;;28.74;100.00
74524;BME280;63074;44.696;10.358;2023-08-30T04:15:37;99043.63;;;29.58;98.97
74524;BME280;63074;44.696;10.358;2023-08-30T04:18:04;99057.44;;;29.54;100.00
74524;BME280;63074;44.696;10.358;2023-08-30T04:20:31;99054.72;;;29.61;99.58
74524;BME280;63074;44.696;10.358;2023-08-30T04:22:58;99061.34;;;29.49;100.00
74524;BME280;63074;44.696;10.358;2023-08-30T04:25:28;99054.47;;;29.91;99.36
74524;BME280;63074;44.696;10.358;2023-08-30T04:27:54;99080.34;;;29.03;100.00
74524;BME280;63074;44.696;10.358;2023-08-30T04:30:20;99061.16;;;29.83;98.77
74524;BME280;63074;44.696;10.358;2023-08-30T04:32:46;99044.06;;;29.67;95.70
74524;BME280;63074;44.696;10.358;2023-08-30T04:35:13;99025.03;;;30.55;91.98
74524;BME280;63074;44.696;10.358;2023-08-30T04:37:39;99022.69;;;30.79;88.40
74524;BME280;63074;44.696;10.358;2023-08-30T04:40:09;99015.97;;;30.83;86.86
74524;BME280;63074;44.696;10.358;2023-08-30T04:42:36;99054.69;;;29.58;94.53
74524;BME280;63074;44.696;10.358;2023-08-30T04:45:05;99078.13;;;29.23;99.71
74524;BME280;63074;44.696;10.358;2023-08-30T04:47:32;99074.53;;;29.15;99.38
74524;BME280;63074;44.696;10.358;2023-08-30T04:49:59;99074.53;;;28.75;98.19
74524;BME280;63074;44.696;10.358;2023-08-30T04:52:25;99107.41;;;27.86;100.00
74524;BME280;63074;44.696;10.358;2023-08-30T04:54:51;99087.13;;;28.72;100.00
74524;BME280;63074;44.696;10.358;2023-08-30T04:57:18;99108.66;;;27.93;100.00
74524;BME280;63074;44.696;10.358;2023-08-30T04:59:45;99079.91;;;28.61;100.00
74524;BME280;63074;44.696;10.358;2023-08-30T05:02:11;99066.09;;;29.01;100.00
74524;BME280;63074;44.696;10.358;2023-08-30T05:04:38;99023.00;;;30.28;91.52
74524;BME280;63074;44.696;10.358;2023-08-30T05:07:04;99055.97;;;29.78;95.27
74524;BME280;63074;44.696;10.358;2023-08-30T05:09:31;99047.75;;;29.92;94.47
74524;BME280;63074;44.696;10.358;2023-08-30T05:11:58;99032.91;;;30.46;90.00
74524;BME280;63074;44.696;10.358;2023-08-30T05:14:24;99034.97;;;30.71;89.05
74524;BME280;63074;44.696;10.358;2023-08-30T05:16:51;99043.97;;;30.32;90.10
74524;BME280;63074;44.696;10.358;2023-08-30T05:19:17;99071.81;;;29.74;94.78
74524;BME280;63074;44.696;10.358;2023-08-30T05:21:44;99072.63;;;29.81;94.44
74524;BME280;63074;44.696;10.358;2023-08-30T05:24:11;99086.72;;;29.59;96.96
74524;BME280;63074;44.696;10.358;2023-08-30T05:26:37;99141.50;;;28.61;100.00
74524;BME280;63074;44.696;10.358;2023-08-30T05:29:04;99146.56;;;28.89;100.00
74524;BME280;63074;44.696;10.358;2023-08-30T05:31:30;99115.09;;;30.00;100.00
74524;BME280;63074;44.696;10.358;2023-08-30T05:33:56;99136.84;;;29.02;100.00
74524;BME280;63074;44.696;10.358;2023-08-30T05:36:23;99189.22;;;28.25;100.00
74524;BME280;63074;44.696;10.358;2023-08-30T05:38:49;99157.59;;;28.52;100.00
74524;BME280;63074;44.696;10.358;2023-08-30T05:41:15;99069.81;;;30.65;96.94
74524;BME280;63074;44.696;10.358;2023-08-30T05:43:41;99066.69;;;30.98;94.44
74524;BME280;63074;44.696;10.358;2023-08-30T05:46:07;99074.56;;;30.71;94.93
74524;BME280;63074;44.696;10.358;2023-08-30T05:48:40;99119.16;;;29.58;100.00
74524;BME280;63074;44.696;10.358;2023-08-30T05:51:06;99176.81;;;28.41;100.00
74524;BME280;63074;44.696;10.358;2023-08-30T05:53:33;99121.22;;;29.75;100.00
74524;BME280;63074;44.696;10.358;2023-08-30T05:55:59;99089.50;;;30.38;100.00
74524;BME280;63074;44.696;10.358;2023-08-30T05:58:25;99075.81;;;31.09;96.83
74524;BME280;63074;44.696;10.358;2023-08-30T06:00:51;99080.16;;;30.82;96.52
74524;BME280;63074;44.696;10.358;2023-08-30T06:03:18;99099.47;;;30.53;97.59
74524;BME280;63074;44.696;10.358;2023-08-30T06:05:44;99102.31;;;30.78;97.69
74524;BME280;63074;44.696;10.358;2023-08-30T06:08:10;99077.00;;;31.08;92.12
74524;BME280;63074;44.696;10.358;2023-08-30T06:10:37;99078.59;;;31.34;90.93
74524;BME280;63074;44.696;10.358;2023-08-30T06:13:03;99090.91;;;31.15;93.04
74524;BME280;63074;44.696;10.358;2023-08-30T06:15:29;99092.03;;;30.93;92.89
74524;BME280;63074;44.696;10.358;2023-08-30T06:17:55;99089.66;;;30.95;91.70
74524;BME280;63074;44.696;10.358;2023-08-30T06:20:22;99096.81;;;30.89;91.16
74524;BME280;63074;44.696;10.358;2023-08-30T06:22:48;99068.25;;;31.63;84.70
74524;BME280;63074;44.696;10.358;2023-08-30T06:25:14;99082.00;;;30.32;84.17
74524;BME280;63074;44.696;10.358;2023-08-30T06:27:56;99114.50;;;29.69;88.18
74524;BME280;63074;44.696;10.358;2023-08-30T06:30:23;99122.88;;;29.32;88.45
74524;BME280;63074;44.696;10.358;2023-08-30T06:32:49;99134.56;;;29.59;88.66
74524;BME280;63074;44.696;10.358;2023-08-30T06:35:15;99146.16;;;29.28;91.05
74524;BME280;63074;44.696;10.358;2023-08-30T06:37:42;99123.47;;;30.14;85.42
74524;BME280;63074;44.696;10.358;2023-08-30T06:40:08;99105.88;;;30.72;80.39
74524;BME280;63074;44.696;10.358;2023-08-30T06:42:35;99170.44;;;29.04;90.49
74524;BME280;63074;44.696;10.358;2023-08-30T06:45:02;99176.47;;;29.13;91.84
74524;BME280;63074;44.696;10.358;2023-08-30T06:47:28;99123.22;;;29.71;85.83
74524;BME280;63074;44.696;10.358;2023-08-30T06:49:55;99162.38;;;29.77;89.74
74524;BME280;63074;44.696;10.358;2023-08-30T06:52:21;99125.91;;;30.33;84.56
74524;BME280;63074;44.696;10.358;2023-08-30T06:54:47;99138.56;;;30.27;86.10
74524;BME280;63074;44.696;10.358;2023-08-30T06:57:14;99140.72;;;30.66;85.41
74524;BME280;63074;44.696;10.358;2023-08-30T06:59:40;99144.22;;;30.55;86.75
74524;BME280;63074;44.696;10.358;2023-08-30T07:02:06;99137.69;;;30.09;86.20
74524;BME280;63074;44.696;10.358;2023-08-30T07:04:32;99093.22;;;30.92;77.47
74524;BME280;63074;44.696;10.358;2023-08-30T07:06:59;99136.22;;;30.36;81.72
74524;BME280;63074;44.696;10.358;2023-08-30T07:09:25;99127.50;;;30.38;80.39
74524;BME280;63074;44.696;10.358;2023-08-30T07:11:58;99113.44;;;31.07;78.10
74524;BME280;63074;44.696;10.358;2023-08-30T07:14:24;99111.50;;;31.25;76.23
74524;BME280;63074;44.696;10.358;2023-08-30T07:16:52;99117.38;;;30.81;75.38
74524;BME280;63074;44.696;10.358;2023-08-30T07:19:18;99143.47;;;30.62;79.14
74524;BME280;63074;44.696;10.358;2023-08-30T07:21:44;99106.22;;;32.05;73.26
74524;BME280;63074;44.696;10.358;2023-08-30T07:24:11;99087.28;;;32.77;69.62
74524;BME280;63074;44.696;10.358;2023-08-30T07:26:37;99089.34;;;32.59;70.71
74524;BME280;63074;44.696;10.358;2023-08-30T07:29:03;99101.59;;;31.74;72.43
74524;BME280;63074;44.696;10.358;2023-08-30T07:31:33;99122.47;;;32.28;74.66
74524;BME280;63074;44.696;10.358;2023-08-30T07:33:59;99121.66;;;32.20;75.04
74524;BME280;63074;44.696;10.358;2023-08-30T07:36:27;99147.56;;;31.78;80.60
74524;BME280;63074;44.696;10.358;2023-08-30T07:38:54;99160.28;;;31.79;82.71
74524;BME280;63074;44.696;10.358;2023-08-30T07:41:21;99150.56;;;32.51;80.21
74524;BME280;63074;44.696;10.358;2023-08-30T07:43:47;99182.84;;;31.25;87.12
74524;BME280;63074;44.696;10.358;2023-08-30T07:46:13;99174.53;;;31.88;84.23
74524;BME280;63074;44.696;10.358;2023-08-30T07:48:39;99169.78;;;31.64;84.63
74524;BME280;63074;44.696;10.358;2023-08-30T07:51:06;99114.34;;;33.21;75.57
74524;BME280;63074;44.696;10.358;2023-08-30T07:53:32;99144.72;;;32.21;78.54
74524;BME280;63074;44.696;10.358;2023-08-30T07:55:58;99180.13;;;31.39;82.36
74524;BME280;63074;44.696;10.358;2023-08-30T07:58:24;99143.28;;;32.79;76.27
74524;BME280;63074;44.696;10.358;2023-08-30T08:00:53;99134.72;;;32.41;73.15
74524;BME280;63074;44.696;10.358;2023-08-30T08:03:21;99129.50;;;33.20;70.73
74524;BME280;63074;44.696;10.358;2023-08-30T08:05:48;99136.00;;;32.22;72.68
74524;BME280;63074;44.696;10.358;2023-08-30T08:08:14;99127.41;;;33.35;71.04
74524;BME280;63074;44.696;10.358;2023-08-30T08:10:43;99133.91;;;33.17;71.19
74524;BME280;63074;44.696;10.358;2023-08-30T08:13:10;99112.84;;;34.02;66.56
74524;BME280;63074;44.696;10.358;2023-08-30T08:15:36;99160.94;;;32.37;75.02
74524;BME280;63074;44.696;10.358;2023-08-30T08:18:02;99144.16;;;32.62;72.62
74524;BME280;63074;44.696;10.358;2023-08-30T08:20:30;99119.91;;;33.25;67.73
74524;BME280;63074;44.696;10.358;2023-08-30T08:22:56;99125.88;;;33.27;67.95
74524;BME280;63074;44.696;10.358;2023-08-30T08:25:23;99123.81;;;33.38;66.21
74524;BME280;63074;44.696;10.358;2023-08-30T08:27:50;99113.22;;;33.63;64.43
74524;BME280;63074;44.696;10.358;2023-08-30T08:30:19;99086.00;;;34.49;59.46
74524;BME280;63074;44.696;10.358;2023-08-30T08:32:46;99091.94;;;34.78;60.20
74524;BME280;63074;44.696;10.358;2023-08-30T08:35:13;99090.88;;;34.08;59.05
74524;BME280;63074;44.696;10.358;2023-08-30T08:37:40;99086.00;;;35.03;57.92
74524;BME280;63074;44.696;10.358;2023-08-30T08:40:07;99147.09;;;33.06;65.24
74524;BME280;63074;44.696;10.358;2023-08-30T08:42:37;99105.63;;;34.39;60.11
74524;BME280;63074;44.696;10.358;2023-08-30T08:45:04;99110.72;;;34.13;59.56
74524;BME280;63074;44.696;10.358;2023-08-30T08:47:31;99083.34;;;35.19;54.63
74524;BME280;63074;44.696;10.358;2023-08-30T08:49:59;99098.06;;;35.47;56.14
74524;BME280;63074;44.696;10.358;2023-08-30T08:52:26;99105.06;;;35.08;56.43
74524;BME280;63074;44.696;10.358;2023-08-30T08:54:53;99121.31;;;34.29;57.80
74524;BME280;63074;44.696;10.358;2023-08-30T08:57:21;99107.91;;;34.78;55.88
74524;BME280;63074;44.696;10.358;2023-08-30T08:59:47;99140.63;;;33.72;60.42
74524;BME280;63074;44.696;10.358;2023-08-30T09:02:14;99089.88;;;35.36;53.89
74524;BME280;63074;44.696;10.358;2023-08-30T09:04:41;99112.09;;;34.93;56.30
74524;BME280;63074;44.696;10.358;2023-08-30T09:07:07;99157.06;;;33.55;63.23
74524;BME280;63074;44.696;10.358;2023-08-30T09:09:34;99161.47;;;33.53;63.32
74524;BME280;63074;44.696;10.358;2023-08-30T09:12:00;99137.38;;;34.14;60.31
74524;BME280;63074;44.696;10.358;2023-08-30T09:14:26;99159.75;;;33.66;61.97
74524;BME280;63074;44.696;10.358;2023-08-30T09:17:00;99131.81;;;34.79;58.56
74524;BME280;63074;44.696;10.358;2023-08-30T09:19:27;99139.38;;;34.82;58.57
74524;BME280;63074;44.696;10.358;2023-08-30T09:21:57;99134.31;;;34.70;58.24
74524;BME280;63074;44.696;10.358;2023-08-30T09:24:25;99094.41;;;36.13;51.38
74524;BME280;63074;44.696;10.358;2023-08-30T09:26:52;99070.16;;;36.46;49.06
74524;BME280;63074;44.696;10.358;2023-08-30T09:29:20;99128.72;;;34.70;56.29
74524;BME280;63074;44.696;10.358;2023-08-30T09:31:51;99127.59;;;34.94;55.63
74524;BME280;63074;44.696;10.358;2023-08-30T09:34:24;99121.00;;;35.58;53.15
74524;BME280;63074;44.696;10.358;2023-08-30T09:36:54;99084.78;;;36.90;47.74
74524;BME280;63074;44.696;10.358;2023-08-30T09:39:21;99103.59;;;35.24;51.22
74524;BME280;63074;44.696;10.358;2023-08-30T09:41:48;99140.25;;;35.29;54.58
74524;BME280;63074;44.696;10.358;2023-08-30T09:44:17;99167.19;;;34.55;59.20
74524;BME280;63074;44.696;10.358;2023-08-30T09:46:44;99168.78;;;34.56;58.72
74524;BME280;63074;44.696;10.358;2023-08-30T09:49:11;99216.63;;;33.17;65.03
74524;BME280;63074;44.696;10.358;2023-08-30T09:51:42;99175.28;;;34.08;59.33
74524;BME280;63074;44.696;10.358;2023-08-30T09:54:16;99146.44;;;35.64;54.21
74524;BME280;63074;44.696;10.358;2023-08-30T09:56:44;99161.94;;;35.68;54.93
74524;BME280;63074;44.696;10.358;2023-08-30T09:59:12;99122.13;;;36.27;50.07
74524;BME280;63074;44.696;10.358;2023-08-30T10:01:40;99176.63;;;33.48;56.69
74524;BME280;63074;44.696;10.358;2023-08-30T10:04:07;99161.75;;;35.05;55.54
74524;BME280;63074;44.696;10.358;2023-08-30T10:06:40;99159.28;;;35.11;55.15
74524;BME280;63074;44.696;10.358;2023-08-30T10:09:08;99156.59;;;34.73;56.06
74524;BME280;63074;44.696;10.358;2023-08-30T10:11:35;99134.28;;;35.77;52.69
74524;BME280;63074;44.696;10.358;2023-08-30T10:14:03;99125.66;;;35.88;51.05
74524;BME280;63074;44.696;10.358;2023-08-30T10:16:37;99128.91;;;35.40;51.29
74524;BME280;63074;44.696;10.358;2023-08-30T10:19:31;99121.28;;;37.18;49.97
74524;BME280;63074;44.696;10.358;2023-08-30T10:22:03;99104.44;;;37.22;49.20
74524;BME280;63074;44.696;10.358;2023-08-30T10:24:38;99073.38;;;38.20;45.60
74524;BME280;63074;44.696;10.358;2023-08-30T10:27:07;99092.88;;;37.65;45.74
74524;BME280;63074;44.696;10.358;2023-08-30T10:29:36;99060.59;;;38.18;42.98
74524;BME280;63074;44.696;10.358;2023-08-30T10:32:06;99079.75;;;37.62;43.82
74524;BME280;63074;44.696;10.358;2023-08-30T10:34:33;99104.13;;;36.84;45.15
74524;BME280;63074;44.696;10.358;2023-08-30T10:37:01;99102.56;;;36.27;45.10
74524;BME280;63074;44.696;10.358;2023-08-30T10:42:01;99095.28;;;37.02;45.08
74524;BME280;63074;44.696;10.358;2023-08-30T10:44:27;99101.91;;;36.75;45.76
74524;BME280;63074;44.696;10.358;2023-08-30T10:46:54;99088.03;;;37.37;44.24
74524;BME280;63074;44.696;10.358;2023-08-30T10:49:21;99082.00;;;36.14;45.01
74524;BME280;63074;44.696;10.358;2023-08-30T10:51:57;99094.22;;;36.24;46.48
74524;BME280;63074;44.696;10.358;2023-08-30T10:54:24;99059.41;;;37.45;42.16
74524;BME280;63074;44.696;10.358;2023-08-30T10:56:58;99053.72;;;38.07;42.23
74524;BME280;63074;44.696;10.358;2023-08-30T10:59:27;99038.31;;;38.91;40.23
74524;BME280;63074;44.696;10.358;2023-08-30T11:01:55;99041.44;;;38.80;40.70
74524;BME280;63074;44.696;10.358;2023-08-30T11:04:22;99024.47;;;38.46;39.13
74524;BME280;63074;44.696;10.358;2023-08-30T11:06:50;99002.09;;;39.75;36.71
74524;BME280;63074;44.696;10.358;2023-08-30T11:09:18;99000.31;;;39.68;38.57
74524;BME280;63074;44.696;10.358;2023-08-30T11:11:45;98998.28;;;39.69;36.92
74524;BME280;63074;44.696;10.358;2023-08-30T11:14:15;99023.66;;;39.22;39.13
74524;BME280;63074;44.696;10.358;2023-08-30T11:16:42;99018.75;;;38.75;38.87
74524;BME280;63074;44.696;10.358;2023-08-30T11:19:09;99019.53;;;38.50;37.63
74524;BME280;63074;44.696;10.358;2023-08-30T11:21:40;99023.47;;;38.53;38.49
74524;BME280;63074;44.696;10.358;2023-08-30T11:24:08;99007.09;;;38.76;36.21
74524;BME280;63074;44.696;10.358;2023-08-30T11:26:34;99022.50;;;38.05;37.46
74524;BME280;63074;44.696;10.358;2023-08-30T11:29:08;99018.06;;;39.09;37.63
74524;BME280;63074;44.696;10.358;2023-08-30T11:31:34;99016.16;;;38.42;36.65
74524;BME280;63074;44.696;10.358;2023-08-30T11:34:01;99010.78;;;39.46;35.75
74524;BME280;63074;44.696;10.358;2023-08-30T11:36:29;99031.13;;;39.37;37.87
74524;BME280;63074;44.696;10.358;2023-08-30T11:38:56;99001.03;;;39.60;35.72
74524;BME280;63074;44.696;10.358;2023-08-30T11:41:24;98995.94;;;40.11;35.80
74524;BME280;63074;44.696;10.358;2023-08-30T11:43:53;99000.19;;;39.94;35.64
74524;BME280;63074;44.696;10.358;2023-08-30T11:46:21;99000.31;;;39.46;35.50
74524;BME280;63074;44.696;10.358;2023-08-30T11:48:49;98994.31;;;40.01;35.72
74524;BME280;63074;44.696;10.358;2023-08-30T11:51:17;98992.09;;;39.74;35.56
74524;BME280;63074;44.696;10.358;2023-08-30T11:53:45;98980.84;;;39.74;34.16
74524;BME280;63074;44.696;10.358;2023-08-30T11:56:12;98994.97;;;40.36;35.95
74524;BME280;63074;44.696;10.358;2023-08-30T11:58:38;98994.56;;;39.94;35.20
74524;BME280;63074;44.696;10.358;2023-08-30T12:01:05;99001.25;;;40.89;34.94
74524;BME280;63074;44.696;10.358;2023-08-30T12:03:32;98966.91;;;40.63;32.42
74524;BME280;63074;44.696;10.358;2023-08-30T12:05:59;98969.47;;;39.77;33.15
74524;BME280;63074;44.696;10.358;2023-08-30T12:08:26;98970.25;;;39.78;33.82
74524;BME280;63074;44.696;10.358;2023-08-30T12:10:53;98970.13;;;41.11;32.67
74524;BME280;63074;44.696;10.358;2023-08-30T12:13:29;98970.63;;;40.51;32.39
74524;BME280;63074;44.696;10.358;2023-08-30T12:15:57;99000.63;;;40.85;35.45
74524;BME280;63074;44.696;10.358;2023-08-30T12:18:31;98986.91;;;41.60;33.92
74524;BME280;63074;44.696;10.358;2023-08-30T12:21:01;98965.44;;;40.90;31.97
74524;BME280;63074;44.696;10.358;2023-08-30T12:23:29;98982.66;;;40.92;33.24
74524;BME280;63074;44.696;10.358;2023-08-30T12:26:07;98966.66;;;41.89;32.49
74524;BME280;63074;44.696;10.358;2023-08-30T12:28:38;98962.38;;;42.54;32.71
74524;BME280;63074;44.696;10.358;2023-08-30T12:31:05;98973.19;;;42.13;33.19
74524;BME280;63074;44.696;10.358;2023-08-30T12:33:31;98952.19;;;42.15;31.17
74524;BME280;63074;44.696;10.358;2023-08-30T12:35:58;98962.72;;;41.96;32.03
74524;BME280;63074;44.696;10.358;2023-08-30T12:38:25;98942.13;;;43.27;31.31
74524;BME280;63074;44.696;10.358;2023-08-30T12:40:53;98938.81;;;42.57;29.71
74524;BME280;63074;44.696;10.358;2023-08-30T12:43:20;98939.06;;;42.35;30.20
74524;BME280;63074;44.696;10.358;2023-08-30T12:45:47;98950.56;;;42.89;30.14
74524;BME280;63074;44.696;10.358;2023-08-30T12:48:15;98958.41;;;41.49;30.76
74524;BME280;63074;44.696;10.358;2023-08-30T12:50:43;98952.13;;;40.90;31.33
74524;BME280;63074;44.696;10.358;2023-08-30T12:53:09;98953.56;;;41.50;30.63
74524;BME280;63074;44.696;10.358;2023-08-30T12:55:35;98939.47;;;42.52;29.89